sensor_id;sensor_type;location;lat;lon;timestamp;P1;durP1;ratioP1;P2;durP2;ratioP2
842;SDS011;407;48.884;9.126;2023-03-01T00:01:21;26.92;;;10.23;;
842;SDS011;407;48.884;9.126;2023-03-01T00:03:49;24.10;;;10.48;;
842;SDS011;407;48.884;9.126;2023-03-01T00:06:17;17.43;;;9.00;;
842;SDS011;407;48.884;9.126;2023-03-01T00:08:43;26.30;;;11.25;;
842;SDS011;407;48.884;9.126;2023-03-01T00:11:13;26.35;;;11.88;;
842;SDS011;407;48.884;9.126;2023-03-01T00:13:42;27.63;;;12.43;;
842;SDS011;407;48.884;9.126;2023-03-01T00:16:10;29.45;;;11.18;;
842;SDS011;407;48.884;9.126;2023-03-01T00:18:38;26.33;;;10.65;;
842;SDS011;407;48.884;9.126;2023-03-01T00:21:04;21.92;;;10.07;;
842;SDS011;407;48.884;9.126;2023-03-01T00:23:30;21.90;;;9.90;;
842;SDS011;407;48.884;9.126;2023-03-01T00:25:56;22.80;;;10.63;;
842;SDS011;407;48.884;9.126;2023-03-01T00:28:22;23.33;;;9.60;;
842;SDS011;407;48.884;9.126;2023-03-01T00:30:47;18.95;;;8.10;;
842;SDS011;407;48.884;9.126;2023-03-01T00:33:13;22.00;;;8.82;;
842;SDS011;407;48.884;9.126;2023-03-01T00:35:39;20.08;;;9.55;;
842;SDS011;407;48.884;9.126;2023-03-01T00:38:04;21.10;;;9.53;;
842;SDS011;407;48.884;9.126;2023-03-01T00:40:31;18.35;;;8.45;;
842;SDS011;407;48.884;9.126;2023-03-01T00:43:00;21.27;;;9.15;;
842;SDS011;407;48.884;9.126;2023-03-01T00:45:26;22.20;;;9.70;;
842;SDS011;407;48.884;9.126;2023-03-01T00:47:53;21.52;;;8.60;;
842;SDS011;407;48.884;9.126;2023-03-01T00:50:19;24.20;;;9.80;;
842;SDS011;407;48.884;9.126;2023-03-01T00:53:03;22.80;;;8.90;;
842;SDS011;407;48.884;9.126;2023-03-01T00:55:30;22.77;;;9.93;;
842;SDS011;407;48.884;9.126;2023-03-01T00:57:55;23.90;;;9.90;;
842;SDS011;407;48.884;9.126;2023-03-01T01:00:22;22.10;;;9.55;;
842;SDS011;407;48.884;9.126;2023-03-01T01:02:48;22.50;;;8.75;;
842;SDS011;407;48.884;9.126;2023-03-01T01:05:14;19.67;;;9.30;;
842;SDS011;407;48.884;9.126;2023-03-01T01:07:39;20.10;;;8.65;;
842;SDS011;407;48.884;9.126;2023-03-01T01:10:06;19.70;;;9.05;;
842;SDS011;407;48.884;9.126;2023-03-01T01:12:32;20.40;;;9.50;;
842;SDS011;407;48.884;9.126;2023-03-01T01:14:58;20.05;;;9.00;;
842;SDS011;407;48.884;9.126;2023-03-01T01:17:24;21.23;;;10.10;;
842;SDS011;407;48.884;9.126;2023-03-01T01:19:50;24.02;;;9.50;;
842;SDS011;407;48.884;9.126;2023-03-01T01:22:16;18.25;;;8.35;;
842;SDS011;407;48.884;9.126;2023-03-01T01:24:42;21.08;;;9.57;;
842;SDS011;407;48.884;9.126;2023-03-01T01:27:08;24.30;;;10.02;;
842;SDS011;407;48.884;9.126;2023-03-01T01:29:34;21.20;;;8.90;;
842;SDS011;407;48.884;9.126;2023-03-01T01:32:00;18.85;;;9.45;;
842;SDS011;407;48.884;9.126;2023-03-01T01:34:27;20.25;;;8.90;;
842;SDS011;407;48.884;9.126;2023-03-01T01:36:53;20.40;;;9.73;;
842;SDS011;407;48.884;9.126;2023-03-01T01:39:20;18.45;;;8.13;;
842;SDS011;407;48.884;9.126;2023-03-01T01:41:46;22.48;;;9.00;;
842;SDS011;407;48.884;9.126;2023-03-01T01:44:17;18.67;;;8.05;;
842;SDS011;407;48.884;9.126;2023-03-01T01:51:48;20.47;;;9.70;;
842;SDS011;407;48.884;9.126;2023-03-01T01:54:18;19.33;;;9.35;;
842;SDS011;407;48.884;9.126;2023-03-01T01:56:48;19.23;;;8.80;;
842;SDS011;407;48.884;9.126;2023-03-01T01:59:15;20.17;;;9.90;;
842;SDS011;407;48.884;9.126;2023-03-01T02:01:41;19.58;;;8.43;;
842;SDS011;407;48.884;9.126;2023-03-01T02:04:08;21.13;;;8.68;;
842;SDS011;407;48.884;9.126;2023-03-01T02:06:36;20.33;;;9.10;;
842;SDS011;407;48.884;9.126;2023-03-01T02:09:05;21.55;;;9.38;;
842;SDS011;407;48.884;9.126;2023-03-01T02:11:32;21.98;;;9.27;;
842;SDS011;407;48.884;9.126;2023-03-01T02:13:59;23.50;;;9.90;;
842;SDS011;407;48.884;9.126;2023-03-01T02:16:25;22.55;;;9.77;;
842;SDS011;407;48.884;9.126;2023-03-01T02:18:51;20.33;;;9.40;;
842;SDS011;407;48.884;9.126;2023-03-01T02:23:57;24.27;;;10.02;;
842;SDS011;407;48.884;9.126;2023-03-01T02:26:33;21.63;;;8.95;;
842;SDS011;407;48.884;9.126;2023-03-01T02:29:02;21.48;;;9.35;;
842;SDS011;407;48.884;9.126;2023-03-01T02:31:31;22.95;;;9.20;;
842;SDS011;407;48.884;9.126;2023-03-01T02:34:06;22.42;;;9.52;;
842;SDS011;407;48.884;9.126;2023-03-01T02:36:37;23.33;;;9.15;;
842;SDS011;407;48.884;9.126;2023-03-01T02:39:04;21.90;;;9.93;;
842;SDS011;407;48.884;9.126;2023-03-01T02:41:39;26.33;;;9.95;;
842;SDS011;407;48.884;9.126;2023-03-01T02:44:06;22.02;;;8.85;;
842;SDS011;407;48.884;9.126;2023-03-01T02:46:33;19.35;;;9.45;;
842;SDS011;407;48.884;9.126;2023-03-01T02:48:59;21.20;;;9.10;;
842;SDS011;407;48.884;9.126;2023-03-01T02:56:32;21.65;;;8.60;;
842;SDS011;407;48.884;9.126;2023-03-01T02:58:58;20.02;;;9.30;;
842;SDS011;407;48.884;9.126;2023-03-01T03:01:26;21.27;;;10.65;;
842;SDS011;407;48.884;9.126;2023-03-01T03:04:13;21.55;;;9.18;;
842;SDS011;407;48.884;9.126;2023-03-01T03:06:42;21.00;;;9.68;;
842;SDS011;407;48.884;9.126;2023-03-01T03:09:09;21.83;;;10.02;;
842;SDS011;407;48.884;9.126;2023-03-01T03:11:35;20.70;;;9.30;;
842;SDS011;407;48.884;9.126;2023-03-01T03:14:01;22.42;;;9.90;;
842;SDS011;407;48.884;9.126;2023-03-01T03:16:27;19.60;;;9.20;;
842;SDS011;407;48.884;9.126;2023-03-01T03:18:54;24.92;;;9.77;;
842;SDS011;407;48.884;9.126;2023-03-01T03:21:29;20.65;;;9.43;;
842;SDS011;407;48.884;9.126;2023-03-01T03:23:55;20.05;;;8.93;;
842;SDS011;407;48.884;9.126;2023-03-01T03:26:22;24.98;;;10.15;;
842;SDS011;407;48.884;9.126;2023-03-01T03:28:49;19.25;;;8.70;;
842;SDS011;407;48.884;9.126;2023-03-01T03:31:15;25.42;;;10.00;;
842;SDS011;407;48.884;9.126;2023-03-01T03:33:41;24.20;;;10.75;;
842;SDS011;407;48.884;9.126;2023-03-01T03:36:07;22.20;;;10.25;;
842;SDS011;407;48.884;9.126;2023-03-01T03:38:38;23.48;;;9.80;;
842;SDS011;407;48.884;9.126;2023-03-01T03:41:05;18.17;;;8.65;;
842;SDS011;407;48.884;9.126;2023-03-01T03:43:32;22.13;;;10.32;;
842;SDS011;407;48.884;9.126;2023-03-01T03:45:59;22.40;;;9.43;;
842;SDS011;407;48.884;9.126;2023-03-01T03:48:25;26.05;;;9.38;;
842;SDS011;407;48.884;9.126;2023-03-01T03:50:55;24.35;;;9.70;;
842;SDS011;407;48.884;9.126;2023-03-01T03:53:22;21.95;;;9.45;;
842;SDS011;407;48.884;9.126;2023-03-01T03:55:48;20.40;;;8.80;;
842;SDS011;407;48.884;9.126;2023-03-01T03:58:14;21.50;;;9.30;;
842;SDS011;407;48.884;9.126;2023-03-01T04:00:42;26.17;;;10.45;;
842;SDS011;407;48.884;9.126;2023-03-01T04:03:08;24.40;;;9.35;;
842;SDS011;407;48.884;9.126;2023-03-01T04:05:35;22.30;;;10.13;;
842;SDS011;407;48.884;9.126;2023-03-01T04:08:01;21.40;;;9.70;;
842;SDS011;407;48.884;9.126;2023-03-01T04:10:31;23.05;;;9.80;;
842;SDS011;407;48.884;9.126;2023-03-01T04:12:58;22.67;;;9.77;;
842;SDS011;407;48.884;9.126;2023-03-01T04:15:24;24.40;;;10.90;;
842;SDS011;407;48.884;9.126;2023-03-01T04:17:51;24.67;;;9.93;;
842;SDS011;407;48.884;9.126;2023-03-01T04:20:19;21.77;;;9.63;;
842;SDS011;407;48.884;9.126;2023-03-01T04:22:52;20.95;;;9.48;;
842;SDS011;407;48.884;9.126;2023-03-01T04:25:19;24.97;;;9.50;;
842;SDS011;407;48.884;9.126;2023-03-01T04:27:46;25.15;;;10.82;;
842;SDS011;407;48.884;9.126;2023-03-01T04:30:12;21.02;;;9.82;;
842;SDS011;407;48.884;9.126;2023-03-01T04:32:38;27.45;;;11.57;;
842;SDS011;407;48.884;9.126;2023-03-01T04:35:04;22.63;;;10.47;;
842;SDS011;407;48.884;9.126;2023-03-01T04:37:30;25.60;;;10.30;;
842;SDS011;407;48.884;9.126;2023-03-01T04:39:56;21.13;;;9.18;;
842;SDS011;407;48.884;9.126;2023-03-01T04:42:22;20.23;;;9.65;;
842;SDS011;407;48.884;9.126;2023-03-01T04:44:48;23.67;;;10.00;;
842;SDS011;407;48.884;9.126;2023-03-01T04:47:16;27.87;;;11.80;;
842;SDS011;407;48.884;9.126;2023-03-01T04:49:42;37.25;;;17.10;;
842;SDS011;407;48.884;9.126;2023-03-01T04:52:08;35.58;;;18.05;;
842;SDS011;407;48.884;9.126;2023-03-01T04:54:36;31.02;;;13.18;;
842;SDS011;407;48.884;9.126;2023-03-01T04:57:03;21.52;;;10.77;;
842;SDS011;407;48.884;9.126;2023-03-01T04:59:29;22.20;;;10.20;;
842;SDS011;407;48.884;9.126;2023-03-01T05:01:56;24.38;;;10.70;;
842;SDS011;407;48.884;9.126;2023-03-01T05:04:23;21.38;;;11.18;;
842;SDS011;407;48.884;9.126;2023-03-01T05:06:49;21.35;;;10.32;;
842;SDS011;407;48.884;9.126;2023-03-01T05:09:16;23.23;;;10.07;;
842;SDS011;407;48.884;9.126;2023-03-01T05:11:42;25.33;;;11.18;;
842;SDS011;407;48.884;9.126;2023-03-01T05:14:08;22.70;;;11.90;;
842;SDS011;407;48.884;9.126;2023-03-01T05:16:36;27.13;;;12.25;;
842;SDS011;407;48.884;9.126;2023-03-01T05:19:02;26.33;;;11.57;;
842;SDS011;407;48.884;9.126;2023-03-01T05:21:36;28.67;;;11.52;;
842;SDS011;407;48.884;9.126;2023-03-01T05:24:23;22.17;;;10.63;;
842;SDS011;407;48.884;9.126;2023-03-01T05:26:49;24.58;;;10.52;;
842;SDS011;407;48.884;9.126;2023-03-01T05:29:17;32.30;;;12.40;;
842;SDS011;407;48.884;9.126;2023-03-01T05:31:53;22.20;;;11.55;;
842;SDS011;407;48.884;9.126;2023-03-01T05:34:27;23.52;;;11.40;;
842;SDS011;407;48.884;9.126;2023-03-01T05:36:55;26.90;;;12.00;;
842;SDS011;407;48.884;9.126;2023-03-01T05:39:22;29.77;;;13.10;;
842;SDS011;407;48.884;9.126;2023-03-01T05:41:52;34.92;;;14.00;;
842;SDS011;407;48.884;9.126;2023-03-01T05:44:21;31.30;;;13.80;;
842;SDS011;407;48.884;9.126;2023-03-01T05:46:48;29.00;;;11.90;;
842;SDS011;407;48.884;9.126;2023-03-01T05:49:14;18.23;;;9.43;;
842;SDS011;407;48.884;9.126;2023-03-01T05:51:40;28.20;;;11.48;;
842;SDS011;407;48.884;9.126;2023-03-01T05:54:06;22.73;;;11.73;;
842;SDS011;407;48.884;9.126;2023-03-01T05:56:37;22.27;;;9.87;;
842;SDS011;407;48.884;9.126;2023-03-01T05:59:03;23.27;;;10.80;;
842;SDS011;407;48.884;9.126;2023-03-01T06:01:30;17.67;;;8.27;;
842;SDS011;407;48.884;9.126;2023-03-01T06:03:57;22.00;;;10.27;;
842;SDS011;407;48.884;9.126;2023-03-01T06:06:23;23.50;;;10.43;;
842;SDS011;407;48.884;9.126;2023-03-01T06:08:49;22.80;;;10.27;;
842;SDS011;407;48.884;9.126;2023-03-01T06:11:15;23.65;;;10.07;;
842;SDS011;407;48.884;9.126;2023-03-01T06:13:43;25.37;;;11.13;;
842;SDS011;407;48.884;9.126;2023-03-01T06:16:12;21.02;;;10.38;;
842;SDS011;407;48.884;9.126;2023-03-01T06:18:38;23.45;;;9.80;;
842;SDS011;407;48.884;9.126;2023-03-01T06:21:04;24.33;;;9.73;;
842;SDS011;407;48.884;9.126;2023-03-01T06:23:30;22.10;;;10.30;;
842;SDS011;407;48.884;9.126;2023-03-01T06:25:56;23.47;;;11.27;;
842;SDS011;407;48.884;9.126;2023-03-01T06:28:22;26.70;;;11.70;;
842;SDS011;407;48.884;9.126;2023-03-01T06:30:48;24.48;;;10.27;;
842;SDS011;407;48.884;9.126;2023-03-01T06:33:14;23.15;;;11.05;;
842;SDS011;407;48.884;9.126;2023-03-01T06:35:40;22.63;;;10.75;;
842;SDS011;407;48.884;9.126;2023-03-01T06:38:06;24.20;;;10.65;;
842;SDS011;407;48.884;9.126;2023-03-01T06:40:32;28.40;;;12.57;;
842;SDS011;407;48.884;9.126;2023-03-01T06:43:00;29.23;;;12.90;;
842;SDS011;407;48.884;9.126;2023-03-01T06:45:26;24.73;;;11.47;;
842;SDS011;407;48.884;9.126;2023-03-01T06:47:51;21.75;;;11.15;;
842;SDS011;407;48.884;9.126;2023-03-01T06:50:17;25.63;;;13.57;;
842;SDS011;407;48.884;9.126;2023-03-01T06:52:44;27.30;;;13.10;;
842;SDS011;407;48.884;9.126;2023-03-01T06:55:10;24.70;;;11.43;;
842;SDS011;407;48.884;9.126;2023-03-01T06:57:37;29.98;;;12.18;;
842;SDS011;407;48.884;9.126;2023-03-01T07:00:03;21.15;;;10.27;;
842;SDS011;407;48.884;9.126;2023-03-01T07:02:30;23.13;;;10.52;;
842;SDS011;407;48.884;9.126;2023-03-01T07:04:56;25.65;;;11.55;;
842;SDS011;407;48.884;9.126;2023-03-01T07:07:22;24.83;;;11.38;;
842;SDS011;407;48.884;9.126;2023-03-01T07:09:48;24.70;;;11.23;;
842;SDS011;407;48.884;9.126;2023-03-01T07:12:14;25.98;;;11.90;;
842;SDS011;407;48.884;9.126;2023-03-01T07:14:40;25.87;;;11.67;;
842;SDS011;407;48.884;9.126;2023-03-01T07:17:06;27.27;;;12.27;;
842;SDS011;407;48.884;9.126;2023-03-01T07:19:32;27.33;;;11.88;;
842;SDS011;407;48.884;9.126;2023-03-01T07:21:58;23.35;;;11.73;;
842;SDS011;407;48.884;9.126;2023-03-01T07:24:23;24.87;;;12.60;;
842;SDS011;407;48.884;9.126;2023-03-01T07:26:49;23.38;;;10.80;;
842;SDS011;407;48.884;9.126;2023-03-01T07:29:18;25.58;;;11.18;;
842;SDS011;407;48.884;9.126;2023-03-01T07:31:44;24.50;;;11.95;;
842;SDS011;407;48.884;9.126;2023-03-01T07:34:09;28.50;;;12.83;;
842;SDS011;407;48.884;9.126;2023-03-01T07:36:35;23.30;;;10.95;;
842;SDS011;407;48.884;9.126;2023-03-01T07:39:01;24.30;;;11.45;;
842;SDS011;407;48.884;9.126;2023-03-01T07:41:28;23.08;;;11.25;;
842;SDS011;407;48.884;9.126;2023-03-01T07:43:54;28.57;;;12.13;;
842;SDS011;407;48.884;9.126;2023-03-01T07:46:19;27.42;;;12.38;;
842;SDS011;407;48.884;9.126;2023-03-01T07:48:45;25.03;;;11.43;;
842;SDS011;407;48.884;9.126;2023-03-01T07:51:11;25.20;;;12.13;;
842;SDS011;407;48.884;9.126;2023-03-01T07:53:37;27.08;;;12.07;;
842;SDS011;407;48.884;9.126;2023-03-01T07:56:09;26.60;;;12.10;;
842;SDS011;407;48.884;9.126;2023-03-01T07:58:37;23.67;;;11.45;;
842;SDS011;407;48.884;9.126;2023-03-01T08:01:05;23.38;;;11.40;;
842;SDS011;407;48.884;9.126;2023-03-01T08:03:32;21.85;;;10.63;;
842;SDS011;407;48.884;9.126;2023-03-01T08:06:00;24.77;;;11.20;;
842;SDS011;407;48.884;9.126;2023-03-01T08:08:27;23.77;;;11.40;;
842;SDS011;407;48.884;9.126;2023-03-01T08:10:55;26.93;;;11.63;;
842;SDS011;407;48.884;9.126;2023-03-01T08:13:22;23.65;;;11.95;;
842;SDS011;407;48.884;9.126;2023-03-01T08:15:48;24.38;;;11.80;;
842;SDS011;407;48.884;9.126;2023-03-01T08:18:14;25.25;;;11.43;;
842;SDS011;407;48.884;9.126;2023-03-01T08:20:41;26.05;;;12.15;;
842;SDS011;407;48.884;9.126;2023-03-01T08:23:07;24.77;;;11.40;;
842;SDS011;407;48.884;9.126;2023-03-01T08:25:32;25.83;;;10.90;;
842;SDS011;407;48.884;9.126;2023-03-01T08:27:58;25.17;;;11.35;;
842;SDS011;407;48.884;9.126;2023-03-01T08:30:24;30.40;;;11.67;;
842;SDS011;407;48.884;9.126;2023-03-01T08:32:50;25.73;;;12.05;;
842;SDS011;407;48.884;9.126;2023-03-01T08:35:16;23.80;;;11.50;;
842;SDS011;407;48.884;9.126;2023-03-01T08:37:41;25.05;;;12.80;;
842;SDS011;407;48.884;9.126;2023-03-01T08:40:07;24.55;;;12.30;;
842;SDS011;407;48.884;9.126;2023-03-01T08:42:34;22.33;;;11.90;;
842;SDS011;407;48.884;9.126;2023-03-01T08:45:01;26.30;;;12.73;;
842;SDS011;407;48.884;9.126;2023-03-01T08:47:27;23.98;;;12.88;;
842;SDS011;407;48.884;9.126;2023-03-01T08:49:53;23.40;;;12.90;;
842;SDS011;407;48.884;9.126;2023-03-01T08:52:19;21.83;;;12.57;;
842;SDS011;407;48.884;9.126;2023-03-01T08:54:46;26.08;;;14.70;;
842;SDS011;407;48.884;9.126;2023-03-01T08:57:13;25.92;;;15.60;;
842;SDS011;407;48.884;9.126;2023-03-01T08:59:38;25.92;;;15.18;;
842;SDS011;407;48.884;9.126;2023-03-01T09:02:05;24.73;;;15.50;;
842;SDS011;407;48.884;9.126;2023-03-01T09:04:35;27.63;;;15.50;;
842;SDS011;407;48.884;9.126;2023-03-01T09:07:01;24.27;;;14.77;;
842;SDS011;407;48.884;9.126;2023-03-01T09:09:26;29.30;;;16.73;;
842;SDS011;407;48.884;9.126;2023-03-01T09:11:52;28.80;;;14.98;;
842;SDS011;407;48.884;9.126;2023-03-01T09:14:17;26.83;;;15.57;;
842;SDS011;407;48.884;9.126;2023-03-01T09:16:44;26.60;;;16.10;;
842;SDS011;407;48.884;9.126;2023-03-01T09:19:10;28.60;;;15.05;;
842;SDS011;407;48.884;9.126;2023-03-01T09:21:38;24.33;;;14.50;;
842;SDS011;407;48.884;9.126;2023-03-01T09:24:04;24.90;;;15.70;;
842;SDS011;407;48.884;9.126;2023-03-01T09:26:31;27.38;;;14.98;;
842;SDS011;407;48.884;9.126;2023-03-01T09:28:56;25.87;;;15.80;;
842;SDS011;407;48.884;9.126;2023-03-01T09:31:22;29.20;;;16.15;;
842;SDS011;407;48.884;9.126;2023-03-01T09:33:50;25.20;;;16.25;;
842;SDS011;407;48.884;9.126;2023-03-01T09:36:19;22.97;;;14.63;;
842;SDS011;407;48.884;9.126;2023-03-01T09:38:47;27.33;;;16.65;;
842;SDS011;407;48.884;9.126;2023-03-01T09:44:12;23.83;;;15.75;;
842;SDS011;407;48.884;9.126;2023-03-01T09:46:55;26.00;;;15.95;;
842;SDS011;407;48.884;9.126;2023-03-01T09:49:23;26.73;;;16.77;;
842;SDS011;407;48.884;9.126;2023-03-01T09:51:54;26.38;;;16.15;;
842;SDS011;407;48.884;9.126;2023-03-01T09:54:25;25.07;;;15.57;;
842;SDS011;407;48.884;9.126;2023-03-01T09:59:52;25.52;;;16.30;;
842;SDS011;407;48.884;9.126;2023-03-01T10:02:55;26.00;;;16.10;;
842;SDS011;407;48.884;9.126;2023-03-01T10:05:47;30.05;;;17.38;;
842;SDS011;407;48.884;9.126;2023-03-01T10:10:55;26.38;;;16.05;;
842;SDS011;407;48.884;9.126;2023-03-01T10:13:27;27.48;;;15.88;;
842;SDS011;407;48.884;9.126;2023-03-01T10:19:40;27.02;;;16.40;;
842;SDS011;407;48.884;9.126;2023-03-01T10:22:16;23.92;;;16.40;;
842;SDS011;407;48.884;9.126;2023-03-01T10:24:49;26.55;;;16.17;;
842;SDS011;407;48.884;9.126;2023-03-01T10:27:26;25.50;;;15.95;;
842;SDS011;407;48.884;9.126;2023-03-01T10:30:13;25.88;;;16.85;;
842;SDS011;407;48.884;9.126;2023-03-01T10:32:45;23.55;;;16.55;;
842;SDS011;407;48.884;9.126;2023-03-01T10:40:28;28.65;;;17.38;;
842;SDS011;407;48.884;9.126;2023-03-01T10:42:54;24.83;;;16.45;;
842;SDS011;407;48.884;9.126;2023-03-01T10:45:33;29.07;;;17.30;;
842;SDS011;407;48.884;9.126;2023-03-01T10:48:20;25.08;;;15.70;;
842;SDS011;407;48.884;9.126;2023-03-01T10:51:13;25.13;;;16.90;;
842;SDS011;407;48.884;9.126;2023-03-01T10:53:42;26.47;;;16.00;;
842;SDS011;407;48.884;9.126;2023-03-01T10:56:14;25.20;;;16.00;;
842;SDS011;407;48.884;9.126;2023-03-01T10:58:56;24.90;;;16.10;;
842;SDS011;407;48.884;9.126;2023-03-01T11:01:28;27.23;;;16.15;;
842;SDS011;407;48.884;9.126;2023-03-01T11:06:32;29.08;;;16.05;;
842;SDS011;407;48.884;9.126;2023-03-01T11:09:01;23.63;;;15.70;;
842;SDS011;407;48.884;9.126;2023-03-01T11:11:43;26.98;;;17.15;;
842;SDS011;407;48.884;9.126;2023-03-01T11:14:15;23.75;;;15.70;;
842;SDS011;407;48.884;9.126;2023-03-01T11:16:44;27.67;;;17.92;;
842;SDS011;407;48.884;9.126;2023-03-01T11:22:19;27.90;;;16.30;;
842;SDS011;407;48.884;9.126;2023-03-01T11:24:46;26.75;;;15.77;;
842;SDS011;407;48.884;9.126;2023-03-01T11:27:28;21.55;;;14.32;;
842;SDS011;407;48.884;9.126;2023-03-01T11:30:07;24.02;;;16.00;;
842;SDS011;407;48.884;9.126;2023-03-01T11:35:58;27.40;;;15.27;;
842;SDS011;407;48.884;9.126;2023-03-01T11:38:30;21.10;;;13.30;;
842;SDS011;407;48.884;9.126;2023-03-01T11:41:07;24.05;;;14.35;;
842;SDS011;407;48.884;9.126;2023-03-01T11:43:58;23.20;;;14.07;;
842;SDS011;407;48.884;9.126;2023-03-01T11:46:41;21.93;;;13.37;;
842;SDS011;407;48.884;9.126;2023-03-01T11:52:21;27.20;;;13.60;;
842;SDS011;407;48.884;9.126;2023-03-01T12:00:07;22.38;;;12.65;;
842;SDS011;407;48.884;9.126;2023-03-01T12:02:56;25.95;;;13.10;;
842;SDS011;407;48.884;9.126;2023-03-01T12:08:41;21.00;;;13.25;;
842;SDS011;407;48.884;9.126;2023-03-01T12:22:14;26.63;;;13.32;;
842;SDS011;407;48.884;9.126;2023-03-01T12:30:41;26.55;;;13.00;;
842;SDS011;407;48.884;9.126;2023-03-01T12:33:13;26.10;;;13.03;;
842;SDS011;407;48.884;9.126;2023-03-01T12:49:19;24.43;;;11.60;;
842;SDS011;407;48.884;9.126;2023-03-01T12:54:30;18.40;;;11.07;;
842;SDS011;407;48.884;9.126;2023-03-01T12:56:59;24.52;;;12.65;;
842;SDS011;407;48.884;9.126;2023-03-01T12:59:48;24.77;;;11.45;;
842;SDS011;407;48.884;9.126;2023-03-01T13:02:34;24.85;;;12.85;;
842;SDS011;407;48.884;9.126;2023-03-01T13:05:26;21.45;;;12.05;;
842;SDS011;407;48.884;9.126;2023-03-01T13:08:19;25.40;;;13.05;;
842;SDS011;407;48.884;9.126;2023-03-01T13:10:54;24.00;;;11.80;;
842;SDS011;407;48.884;9.126;2023-03-01T13:13:25;24.75;;;12.20;;
842;SDS011;407;48.884;9.126;2023-03-01T13:15:53;21.42;;;10.70;;
842;SDS011;407;48.884;9.126;2023-03-01T13:20:50;26.65;;;12.60;;
842;SDS011;407;48.884;9.126;2023-03-01T13:33:48;24.75;;;12.68;;
842;SDS011;407;48.884;9.126;2023-03-01T13:46:51;21.48;;;11.43;;
842;SDS011;407;48.884;9.126;2023-03-01T13:49:27;22.65;;;11.93;;
842;SDS011;407;48.884;9.126;2023-03-01T13:51:56;19.90;;;10.40;;
842;SDS011;407;48.884;9.126;2023-03-01T13:54:26;25.60;;;12.52;;
842;SDS011;407;48.884;9.126;2023-03-01T13:56:55;22.65;;;11.93;;
842;SDS011;407;48.884;9.126;2023-03-01T13:59:23;18.73;;;10.02;;
842;SDS011;407;48.884;9.126;2023-03-01T14:01:55;21.20;;;11.67;;
842;SDS011;407;48.884;9.126;2023-03-01T14:04:24;21.97;;;11.47;;
842;SDS011;407;48.884;9.126;2023-03-01T14:07:08;25.25;;;12.35;;
842;SDS011;407;48.884;9.126;2023-03-01T14:09:58;21.90;;;11.75;;
842;SDS011;407;48.884;9.126;2023-03-01T14:12:32;22.33;;;11.95;;
842;SDS011;407;48.884;9.126;2023-03-01T14:15:25;23.67;;;12.05;;
842;SDS011;407;48.884;9.126;2023-03-01T14:18:14;23.73;;;10.95;;
842;SDS011;407;48.884;9.126;2023-03-01T14:20:51;23.58;;;11.70;;
842;SDS011;407;48.884;9.126;2023-03-01T14:23:18;23.17;;;11.67;;
842;SDS011;407;48.884;9.126;2023-03-01T14:25:49;24.13;;;12.20;;
842;SDS011;407;48.884;9.126;2023-03-01T14:28:18;22.35;;;11.90;;
842;SDS011;407;48.884;9.126;2023-03-01T14:30:53;24.30;;;12.57;;
842;SDS011;407;48.884;9.126;2023-03-01T14:33:27;24.85;;;12.38;;
842;SDS011;407;48.884;9.126;2023-03-01T14:35:59;22.20;;;11.48;;
842;SDS011;407;48.884;9.126;2023-03-01T14:41:06;25.83;;;13.20;;
842;SDS011;407;48.884;9.126;2023-03-01T14:43:41;23.85;;;12.43;;
842;SDS011;407;48.884;9.126;2023-03-01T14:49:01;25.10;;;12.50;;
842;SDS011;407;48.884;9.126;2023-03-01T14:51:30;22.55;;;12.18;;
842;SDS011;407;48.884;9.126;2023-03-01T14:54:00;22.73;;;11.30;;
842;SDS011;407;48.884;9.126;2023-03-01T14:56:25;26.40;;;12.27;;
842;SDS011;407;48.884;9.126;2023-03-01T14:58:52;22.00;;;11.50;;
842;SDS011;407;48.884;9.126;2023-03-01T15:01:22;24.45;;;11.00;;
842;SDS011;407;48.884;9.126;2023-03-01T15:03:48;26.43;;;12.60;;
842;SDS011;407;48.884;9.126;2023-03-01T15:06:17;22.05;;;12.23;;
842;SDS011;407;48.884;9.126;2023-03-01T15:08:45;22.38;;;12.55;;
842;SDS011;407;48.884;9.126;2023-03-01T15:13:39;22.27;;;11.33;;
842;SDS011;407;48.884;9.126;2023-03-01T15:16:15;23.45;;;11.00;;
842;SDS011;407;48.884;9.126;2023-03-01T15:18:51;24.88;;;11.35;;
842;SDS011;407;48.884;9.126;2023-03-01T15:21:26;24.08;;;12.38;;
842;SDS011;407;48.884;9.126;2023-03-01T15:27:19;22.20;;;10.70;;
842;SDS011;407;48.884;9.126;2023-03-01T15:29:48;24.02;;;10.45;;
842;SDS011;407;48.884;9.126;2023-03-01T15:32:26;24.20;;;11.70;;
842;SDS011;407;48.884;9.126;2023-03-01T15:34:52;27.30;;;12.20;;
842;SDS011;407;48.884;9.126;2023-03-01T15:42:49;26.15;;;10.98;;
842;SDS011;407;48.884;9.126;2023-03-01T15:47:52;24.60;;;12.68;;
842;SDS011;407;48.884;9.126;2023-03-01T15:53:05;25.55;;;12.25;;
842;SDS011;407;48.884;9.126;2023-03-01T15:55:33;22.35;;;12.40;;
842;SDS011;407;48.884;9.126;2023-03-01T15:58:15;22.00;;;11.97;;
842;SDS011;407;48.884;9.126;2023-03-01T16:00:46;23.25;;;11.10;;
842;SDS011;407;48.884;9.126;2023-03-01T16:03:13;22.85;;;11.73;;
842;SDS011;407;48.884;9.126;2023-03-01T16:05:46;24.58;;;12.20;;
842;SDS011;407;48.884;9.126;2023-03-01T16:08:13;26.33;;;12.25;;
842;SDS011;407;48.884;9.126;2023-03-01T16:10:39;20.35;;;10.40;;
842;SDS011;407;48.884;9.126;2023-03-01T16:13:06;23.83;;;11.45;;
842;SDS011;407;48.884;9.126;2023-03-01T16:15:35;19.63;;;9.77;;
842;SDS011;407;48.884;9.126;2023-03-01T16:18:00;25.00;;;11.20;;
842;SDS011;407;48.884;9.126;2023-03-01T16:20:27;24.50;;;11.20;;
842;SDS011;407;48.884;9.126;2023-03-01T16:22:54;21.08;;;10.13;;
842;SDS011;407;48.884;9.126;2023-03-01T16:25:22;25.02;;;11.65;;
842;SDS011;407;48.884;9.126;2023-03-01T16:27:49;20.65;;;10.40;;
842;SDS011;407;48.884;9.126;2023-03-01T16:30:16;22.45;;;11.13;;
842;SDS011;407;48.884;9.126;2023-03-01T16:32:44;22.83;;;10.80;;
842;SDS011;407;48.884;9.126;2023-03-01T16:35:12;20.90;;;10.25;;
842;SDS011;407;48.884;9.126;2023-03-01T16:37:40;23.43;;;11.80;;
842;SDS011;407;48.884;9.126;2023-03-01T16:40:06;24.40;;;11.67;;
842;SDS011;407;48.884;9.126;2023-03-01T16:42:40;23.55;;;10.88;;
842;SDS011;407;48.884;9.126;2023-03-01T16:45:07;24.45;;;11.45;;
842;SDS011;407;48.884;9.126;2023-03-01T16:47:33;20.00;;;10.68;;
842;SDS011;407;48.884;9.126;2023-03-01T16:49:59;20.23;;;10.20;;
842;SDS011;407;48.884;9.126;2023-03-01T16:52:25;22.73;;;10.30;;
842;SDS011;407;48.884;9.126;2023-03-01T16:54:51;19.77;;;9.60;;
842;SDS011;407;48.884;9.126;2023-03-01T16:57:16;22.58;;;10.45;;
842;SDS011;407;48.884;9.126;2023-03-01T16:59:42;23.97;;;10.50;;
842;SDS011;407;48.884;9.126;2023-03-01T17:02:14;23.25;;;10.27;;
842;SDS011;407;48.884;9.126;2023-03-01T17:04:43;22.03;;;11.37;;
842;SDS011;407;48.884;9.126;2023-03-01T17:07:09;21.80;;;11.10;;
842;SDS011;407;48.884;9.126;2023-03-01T17:09:35;23.00;;;11.87;;
842;SDS011;407;48.884;9.126;2023-03-01T17:12:02;21.40;;;10.95;;
842;SDS011;407;48.884;9.126;2023-03-01T17:14:29;23.20;;;11.35;;
842;SDS011;407;48.884;9.126;2023-03-01T17:16:54;24.88;;;11.60;;
842;SDS011;407;48.884;9.126;2023-03-01T17:19:21;22.60;;;11.63;;
842;SDS011;407;48.884;9.126;2023-03-01T17:21:46;24.10;;;11.38;;
842;SDS011;407;48.884;9.126;2023-03-01T17:24:12;27.33;;;11.80;;
842;SDS011;407;48.884;9.126;2023-03-01T17:26:38;27.58;;;12.10;;
842;SDS011;407;48.884;9.126;2023-03-01T17:29:04;28.70;;;12.77;;
842;SDS011;407;48.884;9.126;2023-03-01T17:31:31;24.45;;;12.07;;
842;SDS011;407;48.884;9.126;2023-03-01T17:33:57;29.35;;;13.10;;
842;SDS011;407;48.884;9.126;2023-03-01T17:36:27;27.10;;;12.07;;
842;SDS011;407;48.884;9.126;2023-03-01T17:38:52;26.98;;;11.40;;
842;SDS011;407;48.884;9.126;2023-03-01T17:41:18;30.98;;;13.13;;